Time;durP1;ratioP1;P1;durP2;ratioP2;P2;SDS_P1;SDS_P2;PMS_P1;PMS_P2;Temp;Humidity;BMP_temperature;BMP_pressure;BME280_temperature;BME280_humidity;BME280_pressure;Samples;Min_cycle;Max_cycle;Signal;HPM_P1;HPM_P2
2023/07/25 00:00:27;;;;;;;6.47;3.00;;;;;;;;;;5051458;28;20830;-50
2023/07/25 00:02:53;;;;;;;5.50;2.90;;;;;;;;;;5051590;28;20458;-51
2023/07/25 00:05:19;;;;;;;5.50;2.97;;;;;;;;;;5051481;28;20449;-51
2023/07/25 00:07:45;;;;;;;8.53;3.10;;;;;;;;;;5051531;28;20477;-50
2023/07/25 00:10:11;;;;;;;3.90;3.43;;;;;;;;;;5051335;28;20498;-51
2023/07/25 00:12:38;;;;;;;6.30;3.10;;;;;;;;;;5051575;28;20947;-50
2023/07/25 00:15:04;;;;;;;3.17;2.90;;;;;;;;;;5054762;28;20400;-50
2023/07/25 00:17:31;;;;;;;9.73;3.27;;;;;;;;;;5052821;28;20410;-51
2023/07/25 00:19:57;;;;;;;3.43;3.10;;;;;;;;;;5056898;28;20421;-50
2023/07/25 00:22:23;;;;;;;3.10;2.90;;;;;;;;;;5059216;28;20414;-50
2023/07/25 00:24:49;;;;;;;3.70;3.40;;;;;;;;;;5051423;28;20917;-51
2023/07/25 00:27:15;;;;;;;7.10;3.53;;;;;;;;;;5054777;28;20827;-51
2023/07/25 00:29:41;;;;;;;5.40;3.80;;;;;;;;;;5047627;28;20443;-50
2023/07/25 00:32:07;;;;;;;6.10;4.13;;;;;;;;;;5054434;28;20925;-51
2023/07/25 00:34:33;;;;;;;7.60;4.13;;;;;;;;;;5055258;28;20413;-49
2023/07/25 00:36:59;;;;;;;5.17;4.07;;;;;;;;;;5055589;28;20418;-48
2023/07/25 00:39:25;;;;;;;5.00;4.23;;;;;;;;;;5049443;28;20511;-49
2023/07/25 00:41:51;;;;;;;4.47;3.90;;;;;;;;;;5055200;28;20466;-49
2023/07/25 00:44:17;;;;;;;4.43;4.03;;;;;;;;;;5054090;28;20485;-51
2023/07/25 00:46:43;;;;;;;7.20;4.90;;;;;;;;;;5055298;28;20408;-50
2023/07/25 00:49:09;;;;;;;4.50;4.10;;;;;;;;;;5055276;28;20466;-51
2023/07/25 00:51:35;;;;;;;5.10;4.47;;;;;;;;;;5054953;28;20426;-52
2023/07/25 00:54:02;;;;;;;4.93;4.43;;;;;;;;;;5053309;28;20401;-51
2023/07/25 00:56:28;;;;;;;6.83;4.83;;;;;;;;;;5053495;28;20832;-50
2023/07/25 00:58:54;;;;;;;12.80;5.07;;;;;;;;;;5055007;28;20425;-51
2023/07/25 01:01:21;;;;;;;4.93;4.33;;;;;;;;;;5054294;28;20787;-50
2023/07/25 01:03:47;;;;;;;5.83;4.50;;;;;;;;;;5046680;28;20420;-51
2023/07/25 01:06:14;;;;;;;9.00;5.20;;;;;;;;;;5056516;28;20416;-49
2023/07/25 01:08:49;;;;;;;9.63;4.77;;;;;;;;;;5046094;28;20497;-49
2023/07/25 01:11:15;;;;;;;5.90;5.10;;;;;;;;;;5054456;28;20836;-49
2023/07/25 01:13:41;;;;;;;7.67;5.50;;;;;;;;;;5053447;28;20513;-50
2023/07/25 01:16:10;;;;;;;8.73;4.63;;;;;;;;;;5050388;28;20402;-49
2023/07/25 01:18:36;;;;;;;7.90;5.20;;;;;;;;;;5054518;28;20412;-50
2023/07/25 01:21:03;;;;;;;8.73;5.77;;;;;;;;;;5053576;28;20922;-49
2023/07/25 01:23:29;;;;;;;5.40;4.90;;;;;;;;;;5054398;28;20419;-51
2023/07/25 01:25:55;;;;;;;6.90;5.80;;;;;;;;;;5054612;28;20493;-50
2023/07/25 01:28:21;;;;;;;11.80;5.77;;;;;;;;;;5054387;28;20548;-48
2023/07/25 01:30:47;;;;;;;6.83;5.57;;;;;;;;;;5053827;28;20437;-48
2023/07/25 01:33:13;;;;;;;9.27;5.70;;;;;;;;;;5053634;28;20493;-47
2023/07/25 01:35:39;;;;;;;9.93;5.83;;;;;;;;;;5054438;28;20434;-48
2023/07/25 01:38:05;;;;;;;14.23;6.10;;;;;;;;;;5054219;28;20436;-51
2023/07/25 01:40:31;;;;;;;8.80;5.20;;;;;;;;;;5052780;28;20441;-51
2023/07/25 01:42:57;;;;;;;9.60;5.93;;;;;;;;;;5054175;28;20606;-50
2023/07/25 01:45:23;;;;;;;13.43;6.17;;;;;;;;;;5054468;28;20891;-50
2023/07/25 01:47:49;;;;;;;8.70;5.07;;;;;;;;;;5054254;28;20868;-51
2023/07/25 01:50:15;;;;;;;6.07;5.30;;;;;;;;;;5051260;28;20925;-49
2023/07/25 01:52:41;;;;;;;10.33;6.03;;;;;;;;;;5054180;28;20398;-49
2023/07/25 01:55:07;;;;;;;8.30;5.50;;;;;;;;;;5054029;28;20744;-51
2023/07/25 01:57:33;;;;;;;10.63;6.27;;;;;;;;;;5053881;28;20449;-51
2023/07/25 02:00:00;;;;;;;10.33;5.67;;;;;;;;;;5054002;28;21011;-50
2023/07/25 02:02:26;;;;;;;14.30;5.40;;;;;;;;;;5053226;28;20414;-51
2023/07/25 02:04:52;;;;;;;11.43;6.03;;;;;;;;;;5053687;28;20498;-51
2023/07/25 02:07:17;;;;;;;9.67;4.93;;;;;;;;;;5049871;28;20460;-50
2023/07/25 02:09:43;;;;;;;7.50;5.70;;;;;;;;;;5053433;28;20445;-51
2023/07/25 02:12:09;;;;;;;10.33;5.57;;;;;;;;;;5053802;28;20967;-51
2023/07/25 02:14:35;;;;;;;7.00;5.50;;;;;;;;;;5053278;28;20824;-50
2023/07/25 02:17:01;;;;;;;13.93;5.00;;;;;;;;;;5053377;28;20411;-48
2023/07/25 02:19:27;;;;;;;7.83;5.57;;;;;;;;;;5053462;28;20459;-51
2023/07/25 02:21:53;;;;;;;9.20;5.20;;;;;;;;;;5053306;28;20751;-51
2023/07/25 02:24:19;;;;;;;15.00;6.00;;;;;;;;;;5053818;28;20408;-50
2023/07/25 02:26:45;;;;;;;12.60;5.90;;;;;;;;;;5053519;28;20440;-51
2023/07/25 02:29:11;;;;;;;13.10;6.00;;;;;;;;;;5052726;28;20458;-50
2023/07/25 02:31:37;;;;;;;9.13;6.73;;;;;;;;;;5052852;28;20405;-48
2023/07/25 02:34:03;;;;;;;5.70;5.20;;;;;;;;;;5053139;28;20380;-50
2023/07/25 02:36:29;;;;;;;8.93;4.97;;;;;;;;;;5053203;28;20417;-51
2023/07/25 02:38:55;;;;;;;9.47;5.73;;;;;;;;;;5053086;28;20559;-51
2023/07/25 02:41:21;;;;;;;5.80;5.10;;;;;;;;;;5052935;28;20910;-50
2023/07/25 02:43:47;;;;;;;9.33;5.77;;;;;;;;;;5051653;28;20757;-50
2023/07/25 02:46:13;;;;;;;6.97;5.07;;;;;;;;;;5055244;28;20405;-51
2023/07/25 02:48:39;;;;;;;10.43;4.80;;;;;;;;;;5061467;28;20459;-49
2023/07/25 02:51:05;;;;;;;12.50;5.30;;;;;;;;;;5067882;28;20926;-50
2023/07/25 02:53:31;;;;;;;7.00;4.30;;;;;;;;;;5052745;28;20771;-48
2023/07/25 02:55:57;;;;;;;5.03;4.53;;;;;;;;;;5073086;28;20870;-50
2023/07/25 02:58:23;;;;;;;6.60;5.00;;;;;;;;;;5056528;28;20478;-51
2023/07/25 03:00:49;;;;;;;10.33;4.60;;;;;;;;;;5050185;28;20475;-50
2023/07/25 03:03:15;;;;;;;4.63;4.23;;;;;;;;;;5046597;28;20942;-51
2023/07/25 03:05:41;;;;;;;4.83;4.30;;;;;;;;;;5052726;28;20423;-50
2023/07/25 03:08:07;;;;;;;7.53;4.23;;;;;;;;;;5052570;28;20468;-51
2023/07/25 03:10:33;;;;;;;5.50;4.30;;;;;;;;;;5052543;28;20556;-50
2023/07/25 03:12:59;;;;;;;6.83;4.20;;;;;;;;;;5052388;28;20432;-49
2023/07/25 03:15:25;;;;;;;11.90;4.30;;;;;;;;;;5052367;28;20793;-51
2023/07/25 03:17:51;;;;;;;5.73;4.57;;;;;;;;;;5052381;28;20409;-50
2023/07/25 03:20:17;;;;;;;10.63;4.40;;;;;;;;;;5044517;28;20808;-48
2023/07/25 03:22:43;;;;;;;8.13;4.20;;;;;;;;;;5051342;28;20416;-48
2023/07/25 03:25:09;;;;;;;5.50;3.77;;;;;;;;;;5052223;28;20401;-49
2023/07/25 03:27:36;;;;;;;11.70;4.73;;;;;;;;;;5052135;28;20461;-51
2023/07/25 03:30:02;;;;;;;5.17;4.60;;;;;;;;;;5051914;28;20499;-49
2023/07/25 03:32:28;;;;;;;9.47;4.30;;;;;;;;;;5052236;28;20417;-52
2023/07/25 03:34:54;;;;;;;5.70;4.50;;;;;;;;;;5052126;28;20405;-50
2023/07/25 03:37:20;;;;;;;7.50;4.50;;;;;;;;;;5051037;28;20775;-50
2023/07/25 03:39:45;;;;;;;9.13;4.27;;;;;;;;;;5051736;28;20874;-50
2023/07/25 03:42:11;;;;;;;8.27;4.83;;;;;;;;;;5052215;28;20432;-50
2023/07/25 03:44:39;;;;;;;5.03;4.37;;;;;;;;;;5051781;28;20471;-51
2023/07/25 03:47:05;;;;;;;7.83;4.30;;;;;;;;;;5051969;28;20497;-51
2023/07/25 03:49:31;;;;;;;5.07;4.70;;;;;;;;;;5051631;28;20472;-50
2023/07/25 03:51:57;;;;;;;4.80;4.10;;;;;;;;;;5050425;28;20917;-45
2023/07/25 03:54:25;;;;;;;7.20;4.63;;;;;;;;;;5051891;28;20971;-50
2023/07/25 03:56:51;;;;;;;7.63;4.57;;;;;;;;;;5047801;28;20387;-51
2023/07/25 03:59:17;;;;;;;5.10;4.70;;;;;;;;;;5051820;28;20437;-50
2023/07/25 04:01:43;;;;;;;12.53;4.83;;;;;;;;;;5050955;28;20813;-52
2023/07/25 04:04:10;;;;;;;7.63;4.07;;;;;;;;;;5051104;28;20405;-51
2023/07/25 04:06:38;;;;;;;6.53;4.37;;;;;;;;;;5051322;28;20409;-51
2023/07/25 04:09:05;;;;;;;6.30;4.70;;;;;;;;;;5051692;28;20522;-49
2023/07/25 04:11:31;;;;;;;8.07;5.17;;;;;;;;;;5051348;28;20384;-52
2023/07/25 04:13:57;;;;;;;8.33;4.07;;;;;;;;;;5045713;28;20380;-51
2023/07/25 04:16:23;;;;;;;5.83;4.57;;;;;;;;;;5051512;28;20499;-51
2023/07/25 04:18:49;;;;;;;6.77;5.00;;;;;;;;;;5050679;28;20881;-51
2023/07/25 04:21:15;;;;;;;7.67;4.80;;;;;;;;;;5051181;28;21110;-51
2023/07/25 04:23:42;;;;;;;6.40;4.73;;;;;;;;;;5051429;28;20805;-50
2023/07/25 04:26:08;;;;;;;6.33;5.70;;;;;;;;;;5047478;28;20416;-50
2023/07/25 04:28:34;;;;;;;10.00;5.70;;;;;;;;;;5051166;28;20493;-51
2023/07/25 04:31:00;;;;;;;11.27;5.23;;;;;;;;;;5051098;28;20414;-50
2023/07/25 04:33:26;;;;;;;7.03;4.90;;;;;;;;;;5051029;28;20414;-49
2023/07/25 04:35:52;;;;;;;13.53;5.03;;;;;;;;;;5051261;28;20862;-49
2023/07/25 04:38:18;;;;;;;4.47;4.10;;;;;;;;;;5051358;28;20421;-48
2023/07/25 04:40:45;;;;;;;9.40;5.50;;;;;;;;;;5051220;28;20571;-50
2023/07/25 04:43:11;;;;;;;6.10;5.13;;;;;;;;;;5051423;28;20489;-51
2023/07/25 04:45:37;;;;;;;7.77;5.00;;;;;;;;;;5051377;28;20994;-51
2023/07/25 04:48:04;;;;;;;7.17;5.40;;;;;;;;;;5051097;28;20457;-51
2023/07/25 04:50:29;;;;;;;7.33;5.73;;;;;;;;;;5050686;28;20449;-49
2023/07/25 04:52:55;;;;;;;8.63;5.50;;;;;;;;;;5051247;28;20412;-50
2023/07/25 04:55:23;;;;;;;8.50;5.17;;;;;;;;;;5045512;28;20422;-51
2023/07/25 04:57:51;;;;;;;9.23;5.50;;;;;;;;;;5051252;28;20418;-51
2023/07/25 05:00:17;;;;;;;6.70;6.00;;;;;;;;;;5044186;28;20451;-49
2023/07/25 05:02:43;;;;;;;6.83;5.00;;;;;;;;;;5051020;28;20431;-51
2023/07/25 05:05:09;;;;;;;5.97;5.23;;;;;;;;;;5050330;28;20771;-51
2023/07/25 05:07:35;;;;;;;6.90;6.17;;;;;;;;;;5050514;28;20444;-45
2023/07/25 05:10:01;;;;;;;7.67;5.20;;;;;;;;;;5048112;28;20429;-46
2023/07/25 05:12:27;;;;;;;7.00;5.57;;;;;;;;;;5051028;28;20413;-48
2023/07/25 05:14:53;;;;;;;9.83;5.87;;;;;;;;;;5054006;28;20444;-44
2023/07/25 05:17:19;;;;;;;10.03;6.67;;;;;;;;;;5054649;28;20905;-45
2023/07/25 05:19:45;;;;;;;7.47;5.47;;;;;;;;;;5054331;28;20921;-45
2023/07/25 05:22:10;;;;;;;11.23;5.93;;;;;;;;;;5054620;28;20845;-45
2023/07/25 05:24:36;;;;;;;6.30;5.60;;;;;;;;;;5054956;28;20757;-45
2023/07/25 05:27:03;;;;;;;6.37;5.23;;;;;;;;;;5054489;28;20911;-46
2023/07/25 05:29:30;;;;;;;6.20;5.60;;;;;;;;;;5054306;28;20456;-46
2023/07/25 05:31:56;;;;;;;9.67;6.73;;;;;;;;;;5054159;28;20392;-45
2023/07/25 05:34:23;;;;;;;6.77;5.60;;;;;;;;;;5053222;28;20894;-45
2023/07/25 05:36:49;;;;;;;7.03;6.43;;;;;;;;;;5054363;28;20417;-47
2023/07/25 05:39:15;;;;;;;7.87;7.10;;;;;;;;;;5054095;28;20463;-51
2023/07/25 05:41:42;;;;;;;7.23;5.77;;;;;;;;;;5054275;28;20411;-45
2023/07/25 05:44:09;;;;;;;11.93;7.07;;;;;;;;;;5054201;28;20493;-46
2023/07/25 05:46:35;;;;;;;10.47;6.80;;;;;;;;;;5053936;28;20417;-45
2023/07/25 05:49:00;;;;;;;8.90;7.10;;;;;;;;;;5052895;28;20494;-45
2023/07/25 05:51:26;;;;;;;10.50;6.17;;;;;;;;;;5053715;28;20417;-47
2023/07/25 05:53:52;;;;;;;10.00;7.33;;;;;;;;;;5054234;28;20441;-49
2023/07/25 05:56:18;;;;;;;8.13;6.60;;;;;;;;;;5047929;28;20419;-45
2023/07/25 05:58:44;;;;;;;5.70;5.20;;;;;;;;;;5054009;28;20422;-45
2023/07/25 06:01:12;;;;;;;10.43;6.10;;;;;;;;;;5052950;28;20460;-44
2023/07/25 06:03:38;;;;;;;7.40;6.53;;;;;;;;;;5053231;28;20786;-47
2023/07/25 06:06:04;;;;;;;8.23;6.27;;;;;;;;;;5053517;28;20415;-46
2023/07/25 06:08:30;;;;;;;7.17;5.70;;;;;;;;;;5053132;28;20464;-51
2023/07/25 06:10:57;;;;;;;7.93;6.00;;;;;;;;;;5053106;28;20380;-51
2023/07/25 06:13:23;;;;;;;10.07;5.97;;;;;;;;;;5045887;28;20899;-50
2023/07/25 06:15:50;;;;;;;8.53;6.20;;;;;;;;;;5052606;28;20441;-49
2023/07/25 06:18:16;;;;;;;11.20;6.20;;;;;;;;;;5053531;28;20424;-51
2023/07/25 06:20:42;;;;;;;6.50;5.73;;;;;;;;;;5053562;28;20397;-51
2023/07/25 06:23:08;;;;;;;9.60;7.10;;;;;;;;;;5049399;28;20775;-50
2023/07/25 06:25:35;;;;;;;6.27;5.43;;;;;;;;;;5052642;28;20417;-49
2023/07/25 06:28:01;;;;;;;8.17;6.03;;;;;;;;;;5053287;28;20983;-50
2023/07/25 06:30:27;;;;;;;9.20;5.50;;;;;;;;;;5051955;28;20522;-51
2023/07/25 06:32:53;;;;;;;7.53;4.57;;;;;;;;;;5053411;28;20422;-50
2023/07/25 06:35:22;;;;;;;7.17;5.33;;;;;;;;;;5053279;28;20389;-50
2023/07/25 06:37:48;;;;;;;5.07;4.57;;;;;;;;;;5053272;28;20492;-50
2023/07/25 06:40:15;;;;;;;8.53;4.40;;;;;;;;;;5048582;28;20847;-48
2023/07/25 06:42:41;;;;;;;5.10;4.70;;;;;;;;;;5047381;28;20876;-49
2023/07/25 06:45:08;;;;;;;8.77;4.50;;;;;;;;;;5052882;28;20727;-50
2023/07/25 06:47:34;;;;;;;5.97;4.80;;;;;;;;;;5053052;28;20461;-50
2023/07/25 06:50:00;;;;;;;7.97;4.73;;;;;;;;;;5052459;28;20539;-51
2023/07/25 06:52:26;;;;;;;5.70;3.90;;;;;;;;;;5053134;28;20424;-50
2023/07/25 06:54:52;;;;;;;7.03;4.03;;;;;;;;;;5048407;28;20407;-49
2023/07/25 06:57:18;;;;;;;9.63;4.40;;;;;;;;;;5049751;28;20375;-50
2023/07/25 06:59:44;;;;;;;5.03;3.70;;;;;;;;;;5052506;28;20394;-50
2023/07/25 07:02:10;;;;;;;6.83;4.17;;;;;;;;;;5052870;28;20478;-51
2023/07/25 07:04:36;;;;;;;6.97;3.90;;;;;;;;;;5052549;28;20412;-45
2023/07/25 07:07:02;;;;;;;7.70;4.13;;;;;;;;;;5047068;28;20420;-45
2023/07/25 07:09:28;;;;;;;6.90;4.30;;;;;;;;;;5052484;28;20465;-45
2023/07/25 07:11:54;;;;;;;7.13;4.30;;;;;;;;;;5051553;28;20907;-47
2023/07/25 07:14:20;;;;;;;5.50;3.87;;;;;;;;;;5052441;28;20388;-45
2023/07/25 07:16:46;;;;;;;5.80;4.17;;;;;;;;;;5052751;28;20829;-48
2023/07/25 07:19:12;;;;;;;6.17;3.70;;;;;;;;;;5052492;28;20759;-45
2023/07/25 07:21:38;;;;;;;6.50;3.97;;;;;;;;;;5046430;28;20417;-45
2023/07/25 07:24:04;;;;;;;17.43;4.30;;;;;;;;;;5052397;28;20424;-44
2023/07/25 07:26:31;;;;;;;8.70;4.30;;;;;;;;;;5051442;28;20432;-51
2023/07/25 07:28:56;;;;;;;7.83;4.30;;;;;;;;;;5052195;28;21115;-44
2023/07/25 07:31:24;;;;;;;7.03;4.77;;;;;;;;;;5051988;28;20464;-46
2023/07/25 07:33:50;;;;;;;8.73;4.57;;;;;;;;;;5050579;28;20512;-46
2023/07/25 07:36:16;;;;;;;6.30;4.13;;;;;;;;;;5050782;28;20874;-45
2023/07/25 07:38:43;;;;;;;12.30;4.00;;;;;;;;;;5050565;28;20393;-47
2023/07/25 07:41:09;;;;;;;5.90;3.50;;;;;;;;;;5049597;28;20436;-46
2023/07/25 07:43:35;;;;;;;10.60;4.20;;;;;;;;;;5051729;28;20863;-45
2023/07/25 07:46:01;;;;;;;7.80;3.87;;;;;;;;;;5052188;28;20973;-46
2023/07/25 07:48:27;;;;;;;7.97;4.50;;;;;;;;;;5051829;28;20467;-46
2023/07/25 07:50:53;;;;;;;7.90;3.77;;;;;;;;;;5051320;28;20430;-49
2023/07/25 07:53:19;;;;;;;9.07;4.50;;;;;;;;;;5051740;28;20417;-48
2023/07/25 07:55:45;;;;;;;5.07;3.90;;;;;;;;;;5051659;28;20549;-45
2023/07/25 07:58:12;;;;;;;6.37;3.20;;;;;;;;;;5049774;28;20390;-45
2023/07/25 08:00:39;;;;;;;3.60;3.10;;;;;;;;;;5051464;28;20403;-49
2023/07/25 08:03:05;;;;;;;6.10;3.53;;;;;;;;;;5052098;28;20788;-45
2023/07/25 08:05:31;;;;;;;7.97;3.20;;;;;;;;;;5051770;28;20388;-45
2023/07/25 08:07:58;;;;;;;5.57;4.10;;;;;;;;;;5051145;28;20796;-46
2023/07/25 08:10:25;;;;;;;4.50;3.37;;;;;;;;;;5051026;28;20777;-45
2023/07/25 08:12:52;;;;;;;5.27;2.97;;;;;;;;;;5051624;28;20791;-47
2023/07/25 08:15:18;;;;;;;5.73;3.07;;;;;;;;;;5051493;28;20423;-45
2023/07/25 08:17:44;;;;;;;6.90;4.23;;;;;;;;;;5051616;28;20431;-45
2023/07/25 08:20:13;;;;;;;8.17;3.50;;;;;;;;;;5051248;28;20437;-46
2023/07/25 08:22:40;;;;;;;5.20;3.17;;;;;;;;;;5044287;28;20463;-45
2023/07/25 08:25:06;;;;;;;4.03;3.07;;;;;;;;;;5051488;28;20398;-45
2023/07/25 08:27:33;;;;;;;7.40;2.90;;;;;;;;;;5047704;28;20531;-45
2023/07/25 08:29:59;;;;;;;4.13;3.20;;;;;;;;;;5051357;28;20414;-45
2023/07/25 08:32:25;;;;;;;4.33;3.53;;;;;;;;;;5051345;28;20414;-45
2023/07/25 08:34:51;;;;;;;3.67;2.83;;;;;;;;;;5051403;28;20416;-47
2023/07/25 08:37:20;;;;;;;8.07;2.90;;;;;;;;;;5049546;28;20416;-49
2023/07/25 08:39:46;;;;;;;5.67;2.67;;;;;;;;;;5050905;28;20412;-46
2023/07/25 08:42:12;;;;;;;2.87;2.50;;;;;;;;;;5050758;28;20493;-49
2023/07/25 08:44:39;;;;;;;5.93;3.40;;;;;;;;;;5049278;28;20408;-45
2023/07/25 08:47:11;;;;;;;4.30;2.90;;;;;;;;;;5050883;28;20463;-45
2023/07/25 08:49:38;;;;;;;8.03;3.97;;;;;;;;;;5053779;28;20950;-50
2023/07/25 08:52:05;;;;;;;8.07;3.17;;;;;;;;;;5054840;28;20508;-47
2023/07/25 08:54:32;;;;;;;7.30;2.80;;;;;;;;;;5055113;28;20413;-48
2023/07/25 08:56:58;;;;;;;2.97;2.67;;;;;;;;;;5048041;28;20425;-45
2023/07/25 08:59:24;;;;;;;2.90;2.60;;;;;;;;;;5054603;28;20764;-45
2023/07/25 09:01:51;;;;;;;6.83;3.37;;;;;;;;;;5054976;28;20936;-45
2023/07/25 09:04:18;;;;;;;3.80;2.80;;;;;;;;;;5054983;28;20480;-45
2023/07/25 09:06:44;;;;;;;6.17;3.10;;;;;;;;;;5055037;28;20380;-45
2023/07/25 09:09:11;;;;;;;4.70;2.97;;;;;;;;;;5054619;28;21010;-45
2023/07/25 09:11:38;;;;;;;6.80;3.50;;;;;;;;;;5054864;28;20420;-45
2023/07/25 09:14:04;;;;;;;2.40;2.20;;;;;;;;;;5054318;28;20375;-45
2023/07/25 09:16:30;;;;;;;4.13;3.00;;;;;;;;;;5054856;28;20971;-45
2023/07/25 09:18:56;;;;;;;15.23;3.40;;;;;;;;;;5054775;28;20523;-45
2023/07/25 09:21:23;;;;;;;11.13;3.37;;;;;;;;;;5054593;28;20845;-45
2023/07/25 09:23:56;;;;;;;5.87;2.80;;;;;;;;;;5054622;28;20768;-45
2023/07/25 09:26:23;;;;;;;8.67;2.90;;;;;;;;;;5054081;28;20456;-46
2023/07/25 09:28:50;;;;;;;5.80;3.20;;;;;;;;;;5054496;28;20427;-44
2023/07/25 09:31:17;;;;;;;5.80;2.80;;;;;;;;;;5054343;28;20384;-46
2023/07/25 09:33:46;;;;;;;5.87;3.20;;;;;;;;;;5054459;28;20963;-45
2023/07/25 09:36:12;;;;;;;5.27;3.43;;;;;;;;;;5054316;28;20902;-47
2023/07/25 09:38:47;;;;;;;4.80;2.93;;;;;;;;;;5046171;28;20464;-45
2023/07/25 09:41:13;;;;;;;3.80;3.50;;;;;;;;;;5054213;28;20753;-45
2023/07/25 09:43:40;;;;;;;4.10;3.20;;;;;;;;;;5054209;28;20432;-49
2023/07/25 09:46:06;;;;;;;5.40;2.80;;;;;;;;;;5054326;28;20406;-44
2023/07/25 09:48:32;;;;;;;3.77;3.47;;;;;;;;;;5053990;28;20441;-46
2023/07/25 09:50:59;;;;;;;6.97;4.10;;;;;;;;;;5053541;28;20808;-45
2023/07/25 09:53:25;;;;;;;6.87;3.53;;;;;;;;;;5054162;28;20421;-45
2023/07/25 09:55:52;;;;;;;3.47;3.17;;;;;;;;;;5054197;28;20902;-45
2023/07/25 09:58:19;;;;;;;15.47;4.27;;;;;;;;;;5054134;28;20910;-45
2023/07/25 10:00:46;;;;;;;4.43;3.77;;;;;;;;;;5052436;28;20424;-46
2023/07/25 10:03:12;;;;;;;5.80;3.90;;;;;;;;;;5053965;28;20439;-45
2023/07/25 10:05:42;;;;;;;5.03;3.47;;;;;;;;;;5053962;28;20408;-45
2023/07/25 10:08:08;;;;;;;6.53;4.67;;;;;;;;;;5053893;28;20534;-45
2023/07/25 10:10:35;;;;;;;12.40;4.20;;;;;;;;;;5053510;28;20414;-45
2023/07/25 10:13:01;;;;;;;10.17;4.00;;;;;;;;;;5053906;28;20445;-44
2023/07/25 10:15:31;;;;;;;5.47;4.07;;;;;;;;;;5053556;28;20501;-45
2023/07/25 10:18:16;;;;;;;3.97;3.50;;;;;;;;;;5053762;28;20420;-45
2023/07/25 10:20:42;;;;;;;4.33;3.93;;;;;;;;;;5053691;28;20479;-46
2023/07/25 10:23:12;;;;;;;5.50;4.03;;;;;;;;;;5053634;28;20955;-49
2023/07/25 10:25:38;;;;;;;5.90;3.20;;;;;;;;;;5053593;28;20751;-45
2023/07/25 10:28:04;;;;;;;8.30;3.53;;;;;;;;;;5053385;28;20488;-45
2023/07/25 10:30:52;;;;;;;8.40;3.60;;;;;;;;;;5053254;28;20420;-44
2023/07/25 10:33:18;;;;;;;3.67;3.40;;;;;;;;;;5053555;28;20401;-46
2023/07/25 10:35:49;;;;;;;4.33;4.03;;;;;;;;;;5053350;28;20398;-46
2023/07/25 10:38:21;;;;;;;6.17;3.33;;;;;;;;;;5036371;28;21014;-48
2023/07/25 10:40:54;;;;;;;6.13;3.37;;;;;;;;;;5048031;28;20442;-45
2023/07/25 10:43:21;;;;;;;5.00;3.53;;;;;;;;;;5053333;28;20768;-48
2023/07/25 10:45:49;;;;;;;5.30;3.50;;;;;;;;;;5053470;28;20412;-46
2023/07/25 10:48:31;;;;;;;4.53;3.47;;;;;;;;;;5053181;28;20498;-45
2023/07/25 10:50:58;;;;;;;4.13;3.70;;;;;;;;;;5052510;28;20955;-48
2023/07/25 10:53:24;;;;;;;4.00;3.70;;;;;;;;;;5052970;28;20417;-46
2023/07/25 10:56:06;;;;;;;8.53;3.60;;;;;;;;;;5052637;28;20405;-45
2023/07/25 10:58:59;;;;;;;4.23;3.70;;;;;;;;;;5052158;28;20391;-45
2023/07/25 11:01:32;;;;;;;5.53;3.10;;;;;;;;;;5062859;28;20472;-46
2023/07/25 11:04:18;;;;;;;3.10;2.90;;;;;;;;;;5050978;28;20385;-45
2023/07/25 11:06:43;;;;;;;6.57;3.60;;;;;;;;;;5032914;28;20729;-45
2023/07/25 11:09:11;;;;;;;3.80;3.47;;;;;;;;;;5050578;28;20483;-46
2023/07/25 11:11:42;;;;;;;7.47;3.60;;;;;;;;;;5052382;28;20415;-49
2023/07/25 11:14:09;;;;;;;7.47;2.90;;;;;;;;;;5052719;28;20406;-45
2023/07/25 11:16:35;;;;;;;10.33;3.80;;;;;;;;;;5052493;28;20767;-45
2023/07/25 11:19:02;;;;;;;8.27;3.90;;;;;;;;;;5052560;28;20532;-45
2023/07/25 11:21:30;;;;;;;4.17;2.93;;;;;;;;;;5052290;28;20520;-44
2023/07/25 11:24:06;;;;;;;3.53;3.20;;;;;;;;;;5052140;28;20501;-48
2023/07/25 11:26:32;;;;;;;9.33;3.67;;;;;;;;;;5052465;28;20739;-44
2023/07/25 11:29:05;;;;;;;4.40;3.40;;;;;;;;;;5052241;28;20469;-45
2023/07/25 11:31:31;;;;;;;4.40;3.47;;;;;;;;;;5051961;28;20391;-47
2023/07/25 11:33:58;;;;;;;3.03;2.73;;;;;;;;;;5052287;28;20409;-48
2023/07/25 11:36:25;;;;;;;6.53;3.30;;;;;;;;;;5050366;28;20406;-45
2023/07/25 11:38:51;;;;;;;9.13;3.40;;;;;;;;;;5052115;28;20429;-44
2023/07/25 11:41:17;;;;;;;5.13;3.37;;;;;;;;;;5051985;28;20945;-45
2023/07/25 11:43:44;;;;;;;6.03;3.90;;;;;;;;;;5049646;28;20412;-45
2023/07/25 11:46:14;;;;;;;9.30;3.47;;;;;;;;;;5048358;28;20498;-46
2023/07/25 11:48:41;;;;;;;6.53;3.73;;;;;;;;;;5043727;28;20533;-48
2023/07/25 11:51:07;;;;;;;5.90;3.23;;;;;;;;;;5050173;28;20432;-45
2023/07/25 11:53:33;;;;;;;3.57;3.20;;;;;;;;;;5052175;28;20406;-45
2023/07/25 11:56:00;;;;;;;3.83;2.90;;;;;;;;;;5047015;28;20420;-47
2023/07/25 11:58:26;;;;;;;5.43;2.70;;;;;;;;;;5052007;28;20389;-45
2023/07/25 12:00:54;;;;;;;8.33;2.80;;;;;;;;;;5051610;28;20465;-45
2023/07/25 12:03:21;;;;;;;3.50;2.40;;;;;;;;;;5050068;28;20423;-45
2023/07/25 12:05:56;;;;;;;5.27;2.50;;;;;;;;;;5051845;28;20408;-46
2023/07/25 12:08:41;;;;;;;6.50;3.00;;;;;;;;;;5049409;28;20596;-47
2023/07/25 12:11:08;;;;;;;3.03;2.37;;;;;;;;;;5047347;28;20380;-44
2023/07/25 12:13:43;;;;;;;5.00;2.63;;;;;;;;;;5051711;28;20925;-46
2023/07/25 12:16:09;;;;;;;3.60;2.50;;;;;;;;;;5051691;28;20900;-45
2023/07/25 12:18:35;;;;;;;2.60;2.40;;;;;;;;;;5050088;28;20380;-46
2023/07/25 12:21:03;;;;;;;3.63;2.73;;;;;;;;;;5051440;28;20381;-45
2023/07/25 12:23:30;;;;;;;5.10;2.80;;;;;;;;;;5050822;28;20402;-45
2023/07/25 12:25:56;;;;;;;4.50;2.80;;;;;;;;;;5051556;28;20837;-45
2023/07/25 12:28:24;;;;;;;4.23;2.97;;;;;;;;;;5051295;28;20459;-46
2023/07/25 12:30:50;;;;;;;6.33;3.10;;;;;;;;;;5051354;28;20483;-47
2023/07/25 12:33:16;;;;;;;3.30;2.87;;;;;;;;;;5049962;28;20416;-47
2023/07/25 12:35:42;;;;;;;7.83;3.13;;;;;;;;;;5050227;28;20966;-45
2023/07/25 12:38:09;;;;;;;3.17;2.90;;;;;;;;;;5051446;28;20384;-45
2023/07/25 12:40:35;;;;;;;3.60;3.10;;;;;;;;;;5051122;28;20435;-45
2023/07/25 12:43:01;;;;;;;4.37;2.87;;;;;;;;;;5051273;28;20451;-46
2023/07/25 12:45:27;;;;;;;7.73;3.80;;;;;;;;;;5049800;28;20420;-48
2023/07/25 12:47:53;;;;;;;6.63;3.77;;;;;;;;;;5051285;28;20449;-45
2023/07/25 12:50:19;;;;;;;9.03;3.67;;;;;;;;;;5050853;28;20430;-45
2023/07/25 12:52:46;;;;;;;3.50;3.20;;;;;;;;;;5046620;28;20380;-46
2023/07/25 12:55:12;;;;;;;3.70;3.40;;;;;;;;;;5051182;28;20414;-45
2023/07/25 12:57:38;;;;;;;6.47;3.13;;;;;;;;;;5043174;28;20403;-49
2023/07/25 13:00:06;;;;;;;5.87;3.20;;;;;;;;;;5049694;28;20800;-45
2023/07/25 13:02:32;;;;;;;5.70;3.40;;;;;;;;;;5051199;28;20389;-48
2023/07/25 13:04:58;;;;;;;3.47;3.17;;;;;;;;;;5051379;28;20381;-45
2023/07/25 13:07:24;;;;;;;3.43;3.00;;;;;;;;;;5051157;28;20432;-45
2023/07/25 13:09:55;;;;;;;3.33;3.03;;;;;;;;;;5050743;28;20957;-45
2023/07/25 13:12:21;;;;;;;4.50;3.23;;;;;;;;;;5051138;28;20499;-46
2023/07/25 13:14:48;;;;;;;4.30;2.77;;;;;;;;;;5049717;28;20852;-49
2023/07/25 13:17:14;;;;;;;8.90;3.50;;;;;;;;;;5051032;28;20498;-47
2023/07/25 13:19:40;;;;;;;3.80;2.93;;;;;;;;;;5051106;28;20465;-49
2023/07/25 13:22:06;;;;;;;10.60;3.47;;;;;;;;;;5051154;28;20673;-45
2023/07/25 13:24:33;;;;;;;4.97;2.90;;;;;;;;;;5047400;28;20785;-45
2023/07/25 13:26:59;;;;;;;5.40;3.30;;;;;;;;;;5049958;28;20410;-46
2023/07/25 13:29:25;;;;;;;4.50;3.40;;;;;;;;;;5050740;28;20450;-48
2023/07/25 13:31:51;;;;;;;13.50;3.10;;;;;;;;;;5050810;28;20390;-45
2023/07/25 13:34:17;;;;;;;4.80;2.50;;;;;;;;;;5051377;28;20561;-45
2023/07/25 13:36:42;;;;;;;3.93;2.70;;;;;;;;;;5054558;28;20413;-45
2023/07/25 13:39:10;;;;;;;3.60;2.60;;;;;;;;;;5054202;28;20441;-45
2023/07/25 13:41:36;;;;;;;3.07;2.80;;;;;;;;;;5052289;28;20419;-48
2023/07/25 13:44:02;;;;;;;7.27;3.10;;;;;;;;;;5053557;28;20432;-45
2023/07/25 13:46:27;;;;;;;9.10;2.60;;;;;;;;;;5054452;28;20413;-44
2023/07/25 13:48:53;;;;;;;3.17;2.90;;;;;;;;;;5054188;28;20450;-44
2023/07/25 13:51:19;;;;;;;3.40;2.20;;;;;;;;;;5053409;28;20429;-45
2023/07/25 13:53:45;;;;;;;2.40;2.10;;;;;;;;;;5054074;28;20441;-44
2023/07/25 13:56:11;;;;;;;2.27;2.10;;;;;;;;;;5053907;28;20466;-45
2023/07/25 13:58:39;;;;;;;8.43;2.50;;;;;;;;;;5054043;28;20411;-46
2023/07/25 14:01:05;;;;;;;5.50;2.20;;;;;;;;;;5054150;28;20415;-44
2023/07/25 14:03:32;;;;;;;5.80;2.17;;;;;;;;;;5053669;28;20406;-45
2023/07/25 14:05:58;;;;;;;5.20;2.13;;;;;;;;;;5048473;28;20486;-47
2023/07/25 14:08:24;;;;;;;3.70;1.53;;;;;;;;;;5054179;28;20553;-44
2023/07/25 14:10:50;;;;;;;6.67;2.50;;;;;;;;;;5052469;28;20434;-44
2023/07/25 14:13:16;;;;;;;3.90;1.90;;;;;;;;;;5053658;28;20407;-45
2023/07/25 14:15:42;;;;;;;2.40;1.83;;;;;;;;;;5053791;28;20440;-44
2023/07/25 14:18:08;;;;;;;2.13;1.40;;;;;;;;;;5053878;28;20422;-45
2023/07/25 14:20:34;;;;;;;4.33;2.33;;;;;;;;;;5053402;28;20500;-44
2023/07/25 14:23:00;;;;;;;3.83;2.10;;;;;;;;;;5053503;28;20391;-45
2023/07/25 14:25:26;;;;;;;2.60;2.20;;;;;;;;;;5052339;28;20473;-47
2023/07/25 14:27:51;;;;;;;5.23;2.03;;;;;;;;;;5053625;28;20470;-44
2023/07/25 14:30:18;;;;;;;4.90;1.97;;;;;;;;;;5053201;28;20409;-44
2023/07/25 14:32:43;;;;;;;3.57;1.90;;;;;;;;;;5053509;28;20420;-44
2023/07/25 14:35:09;;;;;;;4.80;2.00;;;;;;;;;;5053321;28;20375;-44
2023/07/25 14:37:35;;;;;;;2.00;1.90;;;;;;;;;;5052146;28;20426;-44